Assonet, Massachusetts
Current Conditions -  °F | °C
As of 1:28 PM on Monday 26 Jan 2015 (Local Time) from KTAN Reporting Station
Light Snow Light Snow  
Wind Chill: -6°   Ceiling: 2300
Heat Index: -1°   Visibility: 4mi
Dew Point: -4°   Wind: 9mph
Humidity: 79%   Direction: 60°ENE
Pressure: 30.01"   Gusts: NA
Location:  41.8°N, 71.07°W
Report Text: KTAN 261828Z AUTO 06008KT 4SM -SN SCT016 BKN023 OVC037 M01/M04 A3001 RMK AO2 P0001 T10111044
Loading
Personal Weather Stations






























Interactive Weather Map New forecast layout! Learn more

10-Day Weather Forecast

Advertisements
Track Severe Weather on mobile